Data Viewer
| City | State | Eastern Time | Source | Temp | DewPt | RH | BP | 5 Min Precip | Wind Speed | Wind Dir | 5 Min Wind Max | 5 Min Wind Max Dir |
|---|---|---|---|---|---|---|---|---|---|---|---|---|
| Bridgeport | CT | 2026-05-09 00:45 | ASOS | 54 | 46 | 77 | 29.93 | 0 | N | |||
| Bridgeport | CT | 2026-05-09 06:40 | ASOS | 52 | 48 | 87 | 29.91 | 9 | ENE | |||
| Bridgeport | CT | 2026-05-09 07:40 | ASOS | 52 | 48 | 87 | 29.94 | 10 | ENE | |||
| Bridgeport | CT | 2026-05-09 07:35 | ASOS | 52 | 48 | 87 | 29.94 | 9 | ENE | |||
| Bridgeport | CT | 2026-05-09 07:30 | ASOS | 52 | 48 | 87 | 29.93 | 8 | ENE | |||
| Bridgeport | CT | 2026-05-09 07:25 | ASOS | 52 | 48 | 87 | 29.93 | 10 | ENE | |||
| Bridgeport | CT | 2026-05-09 07:20 | ASOS | 52 | 48 | 87 | 29.93 | 9 | E | |||
| Bridgeport | CT | 2026-05-09 07:15 | ASOS | 52 | 48 | 87 | 29.93 | 9 | E | |||
| Bridgeport | CT | 2026-05-09 07:10 | ASOS | 52 | 48 | 87 | 29.93 | 9 | E | |||
| Bridgeport | CT | 2026-05-09 07:05 | ASOS | 52 | 48 | 87 | 29.93 | 9 | E | |||
| Bridgeport | CT | 2026-05-09 07:00 | ASOS | 52 | 48 | 87 | 29.93 | 9 | ENE | |||
| Bridgeport | CT | 2026-05-09 06:50 | ASOS | 52 | 48 | 87 | 29.92 | 10 | ENE | |||
| Bridgeport | CT | 2026-05-09 06:45 | ASOS | 52 | 48 | 87 | 29.92 | 10 | ENE | |||
| Bridgeport | CT | 2026-05-09 06:35 | ASOS | 52 | 48 | 87 | 29.91 | 10 | ENE | |||
| Bridgeport | CT | 2026-05-09 07:52 | ASOS | 52 | 49 | 89 | 29.93 | 10 | ENE | |||
| Bridgeport | CT | 2026-05-09 06:30 | ASOS | 52 | 48 | 87 | 29.91 | 9 | ENE | |||
| Bridgeport | CT | 2026-05-09 06:25 | ASOS | 52 | 48 | 87 | 29.91 | 12 | E | |||
| Bridgeport | CT | 2026-05-09 06:20 | ASOS | 52 | 48 | 87 | 29.91 | 8 | ENE | |||
| Bridgeport | CT | 2026-05-09 06:15 | ASOS | 52 | 48 | 87 | 29.91 | 10 | ENE | |||
| Bridgeport | CT | 2026-05-09 06:10 | ASOS | 52 | 48 | 87 | 29.91 | 9 | ENE | |||
| Bridgeport | CT | 2026-05-09 06:05 | ASOS | 52 | 48 | 87 | 29.92 | 9 | ENE | |||
| Bridgeport | CT | 2026-05-09 06:00 | ASOS | 52 | 48 | 87 | 29.92 | 9 | NE | |||
| Bridgeport | CT | 2026-05-09 05:52 | ASOS | 52 | 49 | 89 | 29.91 | 8 | NE | |||
| Bridgeport | CT | 2026-05-09 05:50 | ASOS | 52 | 48 | 87 | 29.91 | 7 | NE | |||
| Bridgeport | CT | 2026-05-09 05:45 | ASOS | 52 | 48 | 87 | 29.91 | 7 | ENE | |||
| Bridgeport | CT | 2026-05-09 05:40 | ASOS | 52 | 48 | 87 | 29.91 | 7 | E | |||
| Bridgeport | CT | 2026-05-09 05:35 | ASOS | 52 | 48 | 87 | 29.91 | 7 | ENE | |||
| Bridgeport | CT | 2026-05-09 07:50 | ASOS | 52 | 48 | 87 | 29.93 | 12 | ENE | |||
| Bridgeport | CT | 2026-05-09 08:05 | ASOS | 52 | 48 | 87 | 29.93 | 12 | E | |||
| Bridgeport | CT | 2026-05-09 05:25 | ASOS | 52 | 48 | 87 | 29.92 | 8 | ENE | |||
| Bridgeport | CT | 2026-05-09 10:15 | ASOS | 54 | 52 | 94 | 29.91 | 9 | E | |||
| Bridgeport | CT | 2026-05-09 20:49 | ASOS | 54 | 52 | 94 | 29.86 | 3 | E | |||
| Bridgeport | CT | 2026-05-09 18:03 | ASOS | 55 | 53 | 93 | 29.87 | 8 | S | |||
| Bridgeport | CT | 2026-05-09 14:50 | ASOS | 57 | 54 | 88 | 29.87 | 10 | SSW | |||
| Bridgeport | CT | 2026-05-09 11:52 | ASOS | 56 | 51 | 84 | 29.90 | 8 | ENE | |||
| Bridgeport | CT | 2026-05-09 11:15 | ASOS | 55 | 50 | 82 | 29.91 | 9 | E | |||
| Bridgeport | CT | 2026-05-09 11:05 | ASOS | 55 | 50 | 82 | 29.91 | 10 | E | |||
| Bridgeport | CT | 2026-05-09 11:00 | ASOS | 55 | 50 | 82 | 29.91 | 9 | E | |||
| Bridgeport | CT | 2026-05-09 10:52 | ASOS | 55 | 51 | 86 | 29.91 | 9 | ENE | |||
| Bridgeport | CT | 2026-05-09 10:50 | ASOS | 55 | 50 | 82 | 29.91 | 8 | E | |||
| Bridgeport | CT | 2026-05-09 10:40 | ASOS | 55 | 50 | 82 | 29.91 | 9 | ENE | |||
| Bridgeport | CT | 2026-05-09 10:25 | ASOS | 55 | 52 | 88 | 29.90 | 10 | E | |||
| Bridgeport | CT | 2026-05-09 10:05 | ASOS | 54 | 50 | 88 | 29.91 | 9 | E | |||
| Bridgeport | CT | 2026-05-09 08:15 | ASOS | 52 | 48 | 87 | 29.93 | 9 | E | |||
| Bridgeport | CT | 2026-05-09 09:52 | ASOS | 54 | 51 | 90 | 29.91 | 10 | ENE | |||
| Bridgeport | CT | 2026-05-09 09:50 | ASOS | 54 | 50 | 88 | 29.91 | 10 | E | |||
| Bridgeport | CT | 2026-05-09 09:40 | ASOS | 54 | 50 | 88 | 29.91 | 10 | E | |||
| Bridgeport | CT | 2026-05-09 09:25 | ASOS | 54 | 50 | 88 | 29.90 | 12 | E | |||
| Bridgeport | CT | 2026-05-09 09:15 | ASOS | 54 | 50 | 88 | 29.91 | 13 | ENE | |||
| Bridgeport | CT | 2026-05-09 09:10 | ASOS | 54 | 50 | 88 | 29.92 | 12 | ENE | |||
| Bridgeport | CT | 2026-05-09 09:05 | ASOS | 54 | 50 | 88 | 29.92 | 12 | ENE | |||
| Bridgeport | CT | 2026-05-09 08:55 | ASOS | 52 | 50 | 94 | 29.92 | 12 | ENE | |||
| Bridgeport | CT | 2026-05-09 08:50 | ASOS | 52 | 50 | 94 | 29.93 | 9 | ENE | |||
| Bridgeport | CT | 2026-05-09 08:40 | ASOS | 52 | 50 | 94 | 29.93 | 10 | ENE | |||
| Bridgeport | CT | 2026-05-09 08:25 | ASOS | 52 | 50 | 94 | 29.93 | 10 | ENE | |||
| Bridgeport | CT | 2026-05-09 08:20 | ASOS | 52 | 48 | 87 | 29.93 | 9 | ENE | |||
| Bridgeport | CT | 2026-05-09 05:30 | ASOS | 52 | 48 | 87 | 29.91 | 7 | ENE | |||
| Bridgeport | CT | 2026-05-09 05:20 | ASOS | 52 | 48 | 87 | 29.92 | 7 | E | |||
| Bridgeport | CT | 2026-05-09 00:50 | ASOS | 54 | 46 | 77 | 29.93 | 0 | N | |||
| Bridgeport | CT | 2026-05-09 01:55 | ASOS | 54 | 46 | 77 | 29.93 | 0 | N | |||
| Bridgeport | CT | 2026-05-09 02:50 | ASOS | 54 | 46 | 77 | 29.91 | 6 | E | |||
| Bridgeport | CT | 2026-05-09 02:45 | ASOS | 54 | 46 | 77 | 29.91 | 6 | ENE | |||
| Bridgeport | CT | 2026-05-09 02:40 | ASOS | 54 | 46 | 77 | 29.92 | 3 | NE | |||
| Bridgeport | CT | 2026-05-09 02:35 | ASOS | 54 | 46 | 77 | 29.92 | 0 | N | |||
| Bridgeport | CT | 2026-05-09 02:30 | ASOS | 54 | 46 | 77 | 29.92 | 3 | ENE | |||
| Bridgeport | CT | 2026-05-09 02:25 | ASOS | 54 | 46 | 77 | 29.92 | 5 | NE | |||
| Bridgeport | CT | 2026-05-09 02:20 | ASOS | 54 | 46 | 77 | 29.92 | 5 | NE | |||
| Bridgeport | CT | 2026-05-09 02:15 | ASOS | 54 | 46 | 77 | 29.92 | 6 | NE | |||
| Bridgeport | CT | 2026-05-09 02:10 | ASOS | 54 | 46 | 77 | 29.92 | 6 | NE | |||
| Bridgeport | CT | 2026-05-09 02:05 | ASOS | 54 | 46 | 77 | 29.93 | 6 | NNE | |||
| Bridgeport | CT | 2026-05-09 02:00 | ASOS | 54 | 46 | 77 | 29.93 | 5 | NNE | |||
| Bridgeport | CT | 2026-05-09 01:52 | ASOS | 53 | 47 | 80 | 29.93 | 0 | N | |||
| Bridgeport | CT | 2026-05-09 02:55 | ASOS | 52 | 48 | 87 | 29.91 | 7 | E | |||
| Bridgeport | CT | 2026-05-09 01:50 | ASOS | 54 | 46 | 77 | 29.93 | 0 | N | |||
| Bridgeport | CT | 2026-05-09 01:45 | ASOS | 52 | 46 | 82 | 29.93 | 0 | N | |||
| Bridgeport | CT | 2026-05-09 01:40 | ASOS | 52 | 46 | 82 | 29.93 | 0 | N | |||
| Bridgeport | CT | 2026-05-09 01:35 | ASOS | 52 | 46 | 82 | 29.93 | 0 | N | |||
| Bridgeport | CT | 2026-05-09 01:30 | ASOS | 52 | 46 | 82 | 29.93 | 0 | N | |||
| Bridgeport | CT | 2026-05-09 01:25 | ASOS | 52 | 46 | 82 | 29.93 | 0 | N | |||
| Bridgeport | CT | 2026-05-09 01:20 | ASOS | 54 | 46 | 77 | 29.93 | 0 | N | |||
| Bridgeport | CT | 2026-05-09 01:15 | ASOS | 54 | 46 | 77 | 29.93 | 0 | N | |||
| Bridgeport | CT | 2026-05-09 01:10 | ASOS | 54 | 46 | 77 | 29.93 | 0 | N | |||
| Bridgeport | CT | 2026-05-09 01:05 | ASOS | 54 | 46 | 77 | 29.92 | 0 | N | |||
| Bridgeport | CT | 2026-05-09 00:55 | ASOS | 54 | 46 | 77 | 29.93 | 0 | N | |||
| Bridgeport | CT | 2026-05-09 00:52 | ASOS | 53 | 47 | 80 | 29.93 | 0 | N | |||
| Bridgeport | CT | 2026-05-09 02:52 | ASOS | 53 | 48 | 83 | 29.91 | 6 | E | |||
| Bridgeport | CT | 2026-05-09 03:00 | ASOS | 52 | 46 | 82 | 29.91 | 5 | E | |||
| Bridgeport | CT | 2026-05-09 05:15 | ASOS | 52 | 48 | 87 | 29.92 | 7 | E | |||
| Bridgeport | CT | 2026-05-09 04:20 | ASOS | 52 | 48 | 87 | 29.91 | 6 | E | |||
| Bridgeport | CT | 2026-05-09 05:10 | ASOS | 52 | 48 | 87 | 29.92 | 7 | ENE | |||
| Bridgeport | CT | 2026-05-09 05:05 | ASOS | 52 | 48 | 87 | 29.92 | 7 | ENE | |||
| Bridgeport | CT | 2026-05-09 05:00 | ASOS | 52 | 48 | 87 | 29.92 | 6 | E | |||
| Bridgeport | CT | 2026-05-09 04:55 | ASOS | 52 | 48 | 87 | 29.92 | 5 | E | |||
| Bridgeport | CT | 2026-05-09 04:52 | ASOS | 52 | 49 | 89 | 29.92 | 6 | E | |||
| Bridgeport | CT | 2026-05-09 04:50 | ASOS | 52 | 48 | 87 | 29.92 | 5 | ENE | |||
| Bridgeport | CT | 2026-05-09 04:45 | ASOS | 52 | 48 | 87 | 29.92 | 6 | ENE | |||
| Bridgeport | CT | 2026-05-09 04:40 | ASOS | 52 | 48 | 87 | 29.91 | 6 | ENE | |||
| Bridgeport | CT | 2026-05-09 04:35 | ASOS | 52 | 48 | 87 | 29.92 | 6 | ENE | |||
| Bridgeport | CT | 2026-05-09 04:30 | ASOS | 52 | 48 | 87 | 29.92 | 7 | ENE | |||
| Bridgeport | CT | 2026-05-09 04:25 | ASOS | 52 | 48 | 87 | 29.91 | 6 | E | |||
| Bridgeport | CT | 2026-05-09 04:15 | ASOS | 52 | 48 | 87 | 29.91 | 7 | E | |||
| Bridgeport | CT | 2026-05-09 03:05 | ASOS | 52 | 46 | 82 | 29.92 | 6 | ESE | |||
| Bridgeport | CT | 2026-05-09 04:05 | ASOS | 52 | 48 | 87 | 29.92 | 7 | E | |||
| Bridgeport | CT | 2026-05-09 04:00 | ASOS | 52 | 48 | 87 | 29.91 | 6 | E | |||
| Bridgeport | CT | 2026-05-09 03:52 | ASOS | 52 | 49 | 89 | 29.91 | 6 | ENE | |||
| Bridgeport | CT | 2026-05-09 03:50 | ASOS | 52 | 48 | 87 | 29.92 | 6 | ENE | |||
| Bridgeport | CT | 2026-05-09 03:45 | ASOS | 52 | 48 | 87 | 29.92 | 5 | E | |||
| Bridgeport | CT | 2026-05-09 03:40 | ASOS | 52 | 48 | 87 | 29.92 | 6 | E | |||
| Bridgeport | CT | 2026-05-09 03:35 | ASOS | 52 | 48 | 87 | 29.92 | 7 | ESE | |||
| Bridgeport | CT | 2026-05-09 03:30 | ASOS | 52 | 48 | 87 | 29.92 | 6 | ESE | |||
| Bridgeport | CT | 2026-05-09 03:25 | ASOS | 52 | 48 | 87 | 29.92 | 7 | ESE | |||
| Bridgeport | CT | 2026-05-09 03:20 | ASOS | 52 | 48 | 87 | 29.91 | 6 | ESE | |||
| Bridgeport | CT | 2026-05-09 03:15 | ASOS | 52 | 48 | 87 | 29.91 | 6 | E | |||
| Bridgeport | CT | 2026-05-09 03:10 | ASOS | 52 | 48 | 87 | 29.91 | 6 | ESE | |||
| Bridgeport | CT | 2026-05-09 22:05 | ASOS | 52 | 52 | 100 | 29.86 | 3 | E |
data collection created in 0.016844034194946 (queried in 0.003549) rendered in: 0.0001680850982666

